createdAt,value
2018-03-14T00:00:36.104Z,99866.19
2018-03-14T00:03:03.507Z,99868.77
2018-03-14T00:05:30.906Z,99876.02
2018-03-14T00:07:59.217Z,99875.45
2018-03-14T00:10:26.610Z,99876.84
2018-03-14T00:12:54.016Z,99879.58
2018-03-14T00:15:21.827Z,99882.73
2018-03-14T00:17:49.225Z,99882.42
2018-03-14T00:20:16.700Z,99883.85
2018-03-14T00:22:44.096Z,99883.27
2018-03-14T00:25:11.561Z,99895.16
2018-03-14T00:27:40.454Z,99889.13
2018-03-14T00:30:07.852Z,99893.53
2018-03-14T00:32:35.254Z,99895.53
2018-03-14T00:35:02.630Z,99897.80
2018-03-14T00:37:30.037Z,99897.54
2018-03-14T00:39:57.478Z,99905.31
2018-03-14T00:42:24.877Z,99901.13
2018-03-14T00:44:52.284Z,99899.30
2018-03-14T00:47:19.678Z,99904.41
2018-03-14T00:49:47.080Z,99904.03
2018-03-14T00:52:14.521Z,99903.02
2018-03-14T00:54:41.930Z,99904.89
2018-03-14T00:57:09.330Z,99904.47
2018-03-14T00:59:36.802Z,99910.41
2018-03-14T01:02:04.205Z,99903.95
2018-03-14T01:04:31.713Z,99908.10
2018-03-14T01:06:59.324Z,99904.22
2018-03-14T01:09:27.789Z,99908.50
2018-03-14T01:11:55.184Z,99912.42
2018-03-14T01:14:23.372Z,99914.78
2018-03-14T01:16:50.792Z,99917.28
2018-03-14T01:19:18.279Z,99918.06
2018-03-14T01:21:45.650Z,99916.54
2018-03-14T01:24:13.144Z,99921.30
2018-03-14T01:26:40.564Z,99923.11
2018-03-14T01:29:08.010Z,99918.67
2018-03-14T01:31:35.392Z,99919.97
2018-03-14T01:34:02.857Z,99918.56
2018-03-14T01:36:30.348Z,99915.36
2018-03-14T01:38:57.914Z,99922.45
2018-03-14T01:41:25.356Z,99923.16
2018-03-14T01:43:53.023Z,99925.09
2018-03-14T01:46:20.408Z,99923.42
2018-03-14T01:48:47.798Z,99927.14
2018-03-14T01:51:15.184Z,99922.53
2018-03-14T01:53:42.591Z,99925.98
2018-03-14T01:56:10.076Z,99923.66
2018-03-14T01:58:37.487Z,99918.23
2018-03-14T02:01:05.140Z,99919.84
2018-03-14T02:03:32.753Z,99920.58
2018-03-14T02:06:00.193Z,99919.80
2018-03-14T02:08:27.599Z,99913.67
2018-03-14T02:10:54.980Z,99922.47
2018-03-14T02:13:22.382Z,99916.95
2018-03-14T02:15:49.788Z,99923.77
2018-03-14T02:18:17.187Z,99919.77
2018-03-14T02:20:44.589Z,99913.43
2018-03-14T02:23:12.141Z,99910.61
2018-03-14T02:25:39.535Z,99909.94
2018-03-14T02:28:06.983Z,99914.67
2018-03-14T02:30:34.468Z,99909.11
2018-03-14T02:33:01.968Z,99910.75
2018-03-14T02:35:29.447Z,99909.02
2018-03-14T02:37:57.050Z,99918.55
2018-03-14T02:40:24.609Z,99915.82
2018-03-14T02:42:52.019Z,99912.78
2018-03-14T02:45:19.616Z,99909.05
2018-03-14T02:47:47.093Z,99914.12
2018-03-14T02:50:14.486Z,99905.91
2018-03-14T02:52:42.078Z,99916.45
2018-03-14T02:55:09.537Z,99921.66
2018-03-14T02:57:36.913Z,99922.17
2018-03-14T03:00:04.313Z,99923.08
2018-03-14T03:02:31.776Z,99920.86
2018-03-14T03:04:59.197Z,99928.78
2018-03-14T03:07:26.674Z,99930.01
2018-03-14T03:09:54.090Z,99925.94
2018-03-14T03:12:21.521Z,99922.53
2018-03-14T03:14:48.941Z,99919.73
2018-03-14T03:17:16.317Z,99924.67
2018-03-14T03:19:43.733Z,99922.32
2018-03-14T03:22:11.123Z,99919.30
2018-03-14T03:24:38.534Z,99916.84
2018-03-14T03:27:05.948Z,99908.45
2018-03-14T03:29:33.352Z,99910.64
2018-03-14T03:32:00.792Z,99911.31
2018-03-14T03:34:28.246Z,99916.17
2018-03-14T03:36:55.632Z,99925.86
2018-03-14T03:39:23.037Z,99925.21
2018-03-14T03:41:50.493Z,99925.55
2018-03-14T03:44:17.882Z,99920.91
2018-03-14T03:46:45.263Z,99922.85
2018-03-14T03:49:12.689Z,99926.10
2018-03-14T03:51:40.081Z,99924.15
2018-03-14T03:54:07.503Z,99924.48
2018-03-14T03:56:34.908Z,99920.83
2018-03-14T03:59:02.329Z,99920.39
2018-03-14T04:01:29.720Z,99929.78
2018-03-14T04:03:57.133Z,99934.02
2018-03-14T04:06:24.526Z,99936.92
2018-03-14T04:08:51.929Z,99932.30
2018-03-14T04:11:19.323Z,99931.19
2018-03-14T04:13:47.123Z,99925.71
2018-03-14T04:16:14.524Z,99929.75
2018-03-14T04:18:41.930Z,99929.53
2018-03-14T04:21:09.313Z,99929.64
2018-03-14T04:23:37.668Z,99924.08
2018-03-14T04:26:05.076Z,99920.98
2018-03-14T04:28:32.563Z,99922.05
2018-03-14T04:30:59.996Z,99927.34
2018-03-14T04:33:27.386Z,99927.05
2018-03-14T04:35:54.971Z,99919.66
2018-03-14T04:38:23.190Z,99922.45
2018-03-14T04:40:50.662Z,99920.97
2018-03-14T04:43:18.031Z,99925.45
2018-03-14T04:45:45.424Z,99928.11
2018-03-14T04:48:12.956Z,99924.87
2018-03-14T04:50:40.683Z,99921.44
2018-03-14T04:53:08.065Z,99922.44
2018-03-14T04:55:35.462Z,99925.84
2018-03-14T04:58:03.094Z,99919.79
2018-03-14T05:00:30.586Z,99924.56
2018-03-14T05:02:57.990Z,99920.09
2018-03-14T05:05:25.445Z,99920.95
2018-03-14T05:07:53.086Z,99921.86
2018-03-14T05:10:20.775Z,99917.70
2018-03-14T05:12:48.230Z,99918.13
2018-03-14T05:15:15.625Z,99907.16
2018-03-14T05:17:43.040Z,99905.02
2018-03-14T05:20:10.619Z,99911.70
2018-03-14T05:22:38.274Z,99916.40
2018-03-14T05:25:05.861Z,99919.50
2018-03-14T05:27:40.375Z,99915.75
2018-03-14T05:30:07.797Z,99918.55
2018-03-14T05:32:35.206Z,99920.95
2018-03-14T05:35:02.825Z,99915.86
2018-03-14T05:37:30.246Z,99921.49
2018-03-14T05:39:57.629Z,99919.05
2018-03-14T05:42:25.125Z,99920.59
2018-03-14T05:44:53.309Z,99923.14
2018-03-14T05:47:21.096Z,99922.24
2018-03-14T05:49:48.610Z,99920.28
2018-03-14T05:52:16.014Z,99925.27
2018-03-14T05:54:43.490Z,99918.70
2018-03-14T05:57:10.900Z,99924.40
2018-03-14T05:59:38.316Z,99925.78
2018-03-14T06:02:05.691Z,99921.77
2018-03-14T06:04:33.083Z,99923.53
2018-03-14T06:07:00.488Z,99915.46
2018-03-14T06:09:27.879Z,99915.33
2018-03-14T06:11:55.326Z,99913.60
2018-03-14T06:14:23.513Z,99926.85
2018-03-14T06:16:50.928Z,99927.38
2018-03-14T06:19:18.353Z,99932.51
2018-03-14T06:21:45.772Z,99938.19
2018-03-14T06:24:13.165Z,99932.35
2018-03-14T06:26:40.555Z,99923.31
2018-03-14T06:29:07.961Z,99927.03
2018-03-14T06:31:35.353Z,99932.01
2018-03-14T06:34:02.909Z,99932.50
2018-03-14T06:36:31.412Z,99932.23
2018-03-14T06:38:58.846Z,99934.69
2018-03-14T06:41:26.323Z,99940.45
2018-03-14T06:43:53.731Z,99941.34
2018-03-14T06:46:21.116Z,99945.17
2018-03-14T06:48:48.553Z,99944.09
2018-03-14T06:51:15.981Z,99942.00
2018-03-14T06:53:43.384Z,99939.61
2018-03-14T06:56:10.784Z,99940.64
2018-03-14T06:58:49.738Z,99940.62
2018-03-14T07:01:29.017Z,99946.32
2018-03-14T07:04:08.080Z,99944.71
2018-03-14T07:06:35.448Z,99944.39
2018-03-14T07:09:02.845Z,99940.84
2018-03-14T07:11:30.271Z,99942.52
2018-03-14T07:13:57.657Z,99948.47
2018-03-14T07:16:25.041Z,99952.22
2018-03-14T07:18:52.456Z,99954.23
2018-03-14T07:21:19.818Z,99954.98
2018-03-14T07:23:48.095Z,99956.66
2018-03-14T07:26:15.528Z,99963.39
2018-03-14T07:28:42.936Z,99964.61
2018-03-14T07:31:10.389Z,99959.28
2018-03-14T07:33:37.801Z,99965.83
2018-03-14T07:36:05.199Z,99966.14
2018-03-14T07:38:32.580Z,99967.12
2018-03-14T07:40:59.977Z,99968.80
2018-03-14T07:43:27.408Z,99976.56
2018-03-14T07:45:54.804Z,99975.63
2018-03-14T07:48:22.281Z,99971.24
2018-03-14T07:50:49.652Z,99975.45
2018-03-14T07:53:17.042Z,99974.09
2018-03-14T07:55:44.440Z,99974.95
2018-03-14T07:58:15.173Z,99979.55
2018-03-14T08:00:51.884Z,99975.79
2018-03-14T08:03:30.372Z,99977.41
2018-03-14T08:05:57.909Z,99978.91
2018-03-14T08:08:26.487Z,99969.34
2018-03-14T08:10:55.190Z,99980.80
2018-03-14T08:13:22.974Z,99977.83
2018-03-14T08:15:51.173Z,99973.70
2018-03-14T08:18:18.551Z,99976.89
2018-03-14T08:20:46.341Z,99962.24
2018-03-14T08:23:13.742Z,99966.70
2018-03-14T08:25:41.141Z,99963.33
2018-03-14T08:28:08.547Z,99966.62
2018-03-14T08:30:36.358Z,99967.59
2018-03-14T08:33:03.943Z,99966.36
2018-03-14T08:35:31.337Z,99968.89
2018-03-14T08:37:58.767Z,99965.05
2018-03-14T08:40:26.164Z,99967.11
2018-03-14T08:42:54.100Z,99965.52
2018-03-14T08:45:21.485Z,99960.89
2018-03-14T08:47:48.884Z,99964.73
2018-03-14T08:50:16.311Z,99963.25
2018-03-14T08:52:43.766Z,99966.60
2018-03-14T08:55:11.812Z,99960.52
2018-03-14T08:57:39.701Z,99960.40
2018-03-14T09:00:07.085Z,99964.59
2018-03-14T09:02:34.622Z,99963.92
2018-03-14T09:05:02.059Z,99964.62
2018-03-14T09:07:29.452Z,99964.07
2018-03-14T09:09:56.942Z,99962.77
2018-03-14T09:12:24.600Z,99967.09
2018-03-14T09:14:51.990Z,99965.89
2018-03-14T09:17:19.444Z,99967.02
2018-03-14T09:19:46.891Z,99963.70
2018-03-14T09:22:14.379Z,99958.33
2018-03-14T09:24:41.824Z,99961.35
2018-03-14T09:27:09.348Z,99962.44
2018-03-14T09:29:36.920Z,99961.98
2018-03-14T09:32:04.361Z,99968.13
2018-03-14T09:34:31.788Z,99962.97
2018-03-14T09:36:59.180Z,99963.56
2018-03-14T09:39:26.685Z,99965.38
2018-03-14T09:41:54.603Z,99961.38
2018-03-14T09:44:22.124Z,99960.69
2018-03-14T09:46:49.666Z,99965.51
2018-03-14T09:49:17.119Z,99962.29
2018-03-14T09:51:44.544Z,99964.14
2018-03-14T09:54:12.007Z,99964.66
2018-03-14T09:56:39.386Z,99956.83
2018-03-14T09:59:06.761Z,99960.77
2018-03-14T10:01:40.884Z,99953.07
2018-03-14T10:04:08.256Z,99959.43
2018-03-14T10:06:36.131Z,99959.41
2018-03-14T10:09:03.571Z,99950.70
2018-03-14T10:11:31.097Z,99957.66
2018-03-14T10:13:58.494Z,99954.38
2018-03-14T10:16:25.922Z,99949.23
2018-03-14T10:18:53.316Z,99946.80
2018-03-14T10:21:20.852Z,99939.29
2018-03-14T10:23:48.249Z,99939.92
2018-03-14T10:26:15.661Z,99937.28
2018-03-14T10:28:43.060Z,99927.76
2018-03-14T10:31:10.532Z,99929.95
2018-03-14T10:33:37.927Z,99925.11
2018-03-14T10:36:05.340Z,99925.23
2018-03-14T10:38:32.921Z,99919.14
2018-03-14T10:41:01.370Z,99927.76
2018-03-14T10:43:28.915Z,99925.05
2018-03-14T10:45:56.292Z,99933.92
2018-03-14T10:48:25.930Z,99929.11
2018-03-14T10:50:53.471Z,99928.88
2018-03-14T10:53:22.047Z,99927.01
2018-03-14T10:55:49.441Z,99924.36
2018-03-14T10:58:17.026Z,99922.81
2018-03-14T11:00:50.083Z,99925.80
2018-03-14T11:03:32.760Z,99927.27
2018-03-14T11:06:00.265Z,99920.13
2018-03-14T11:08:27.661Z,99918.88
2018-03-14T11:10:56.025Z,99920.58
2018-03-14T11:16:56.292Z,99908.33
2018-03-14T11:19:23.776Z,99907.66
2018-03-14T11:22:04.080Z,99899.99
2018-03-14T11:24:31.564Z,99902.56
2018-03-14T11:26:59.037Z,99909.63
2018-03-14T11:29:26.564Z,99904.94
2018-03-14T11:31:55.474Z,99899.21
2018-03-14T11:34:22.871Z,99886.00
2018-03-14T11:36:50.527Z,99890.94
2018-03-14T11:39:17.985Z,99886.52
2018-03-14T11:41:45.656Z,99893.19
2018-03-14T11:44:13.117Z,99885.60
2018-03-14T11:46:40.554Z,99883.96
2018-03-14T11:49:08.650Z,99888.63
2018-03-14T11:51:36.109Z,99876.09
2018-03-14T11:54:03.527Z,99877.20
2018-03-14T11:56:30.912Z,99871.59
2018-03-14T11:58:58.336Z,99863.42
2018-03-14T12:01:25.952Z,99866.23
2018-03-14T12:03:53.357Z,99860.44
2018-03-14T12:06:21.185Z,99857.56
2018-03-14T12:08:48.599Z,99838.04
2018-03-14T12:11:15.977Z,99833.39
2018-03-14T12:13:43.424Z,99842.69
2018-03-14T12:16:10.894Z,99832.55
2018-03-14T12:18:38.342Z,99826.85
2018-03-14T12:21:05.730Z,99821.29
2018-03-14T12:23:33.116Z,99817.41
2018-03-14T12:26:00.490Z,99805.94
2018-03-14T12:28:29.811Z,99801.45
2018-03-14T12:31:03.570Z,99788.05
2018-03-14T12:33:31.179Z,99785.81
2018-03-14T12:35:58.753Z,99775.09
2018-03-14T12:38:26.430Z,99770.98
2018-03-14T12:40:53.831Z,99763.71
2018-03-14T12:43:21.323Z,99761.11
2018-03-14T12:45:50.265Z,99757.07
2018-03-14T12:48:17.653Z,99756.37
2018-03-14T12:50:45.381Z,99749.87
2018-03-14T12:53:12.752Z,99734.79
2018-03-14T12:55:40.172Z,99741.45
2018-03-14T12:58:07.555Z,99736.11
2018-03-14T13:00:34.939Z,99733.41
2018-03-14T13:03:02.316Z,99722.02
2018-03-14T13:05:29.726Z,99714.51
2018-03-14T13:07:57.119Z,99702.72
2018-03-14T13:10:25.638Z,99691.86
2018-03-14T13:12:53.034Z,99691.06
2018-03-14T13:15:20.645Z,99697.39
2018-03-14T13:17:48.113Z,99694.49
2018-03-14T13:20:15.881Z,99702.58
2018-03-14T13:22:43.255Z,99704.31
2018-03-14T13:25:10.685Z,99704.99
2018-03-14T13:27:38.118Z,99707.73
2018-03-14T13:30:05.714Z,99696.55
2018-03-14T13:32:33.142Z,99699.95
2018-03-14T13:35:00.605Z,99692.62
2018-03-14T13:37:28.166Z,99695.70
2018-03-14T13:39:56.180Z,99688.95
2018-03-14T13:42:23.729Z,99680.47
2018-03-14T13:44:51.165Z,99673.20
2018-03-14T13:47:18.788Z,99677.69
2018-03-14T13:49:46.188Z,99675.70
2018-03-14T13:52:13.624Z,99679.38
2018-03-14T13:54:41.327Z,99664.55
2018-03-14T13:57:08.763Z,99653.88
2018-03-14T13:59:36.135Z,99654.16
2018-03-14T14:02:03.547Z,99650.22
2018-03-14T14:04:30.933Z,99646.06
2018-03-14T14:06:58.334Z,99639.98
2018-03-14T14:09:25.750Z,99633.40
2018-03-14T14:11:53.110Z,99634.57
2018-03-14T14:14:20.720Z,99629.66
2018-03-14T14:16:48.084Z,99623.44
2018-03-14T14:19:15.532Z,99624.17
2018-03-14T14:21:42.910Z,99606.72
2018-03-14T14:24:10.298Z,99601.03
2018-03-14T14:26:37.682Z,99605.41
2018-03-14T14:29:05.074Z,99604.22
2018-03-14T14:31:32.458Z,99585.68
2018-03-14T14:33:59.846Z,99592.59
2018-03-14T14:36:27.241Z,99584.84
2018-03-14T14:38:55.700Z,99587.41
2018-03-14T14:41:23.090Z,99581.70
2018-03-14T14:43:50.483Z,99579.84
2018-03-14T14:46:18.174Z,99577.47
2018-03-14T14:48:47.377Z,99570.00
2018-03-14T14:51:14.758Z,99573.64
2018-03-14T14:53:42.136Z,99553.81
2018-03-14T14:56:09.569Z,99556.77
2018-03-14T14:58:36.969Z,99552.05
2018-03-14T15:01:04.354Z,99541.42
2018-03-14T15:03:31.773Z,99535.83
2018-03-14T15:05:59.190Z,99552.48
2018-03-14T15:08:26.780Z,99539.25
2018-03-14T15:10:54.202Z,99542.22
2018-03-14T15:13:21.586Z,99542.06
2018-03-14T15:15:48.998Z,99534.16
2018-03-14T15:18:16.372Z,99533.08
2018-03-14T15:20:43.781Z,99528.30
2018-03-14T15:23:11.164Z,99527.58
2018-03-14T15:25:38.561Z,99518.29
2018-03-14T15:28:05.942Z,99517.23
2018-03-14T15:30:33.317Z,99510.75
2018-03-14T15:33:01.783Z,99513.53
2018-03-14T15:35:29.177Z,99511.52
2018-03-14T15:37:56.638Z,99508.77
2018-03-14T15:40:24.013Z,99505.18
2018-03-14T15:42:51.446Z,99504.05
2018-03-14T15:45:18.837Z,99497.59
2018-03-14T15:47:46.281Z,99492.61
2018-03-14T15:50:13.681Z,99488.89
2018-03-14T15:52:41.165Z,99498.54
2018-03-14T15:55:08.633Z,99499.23
2018-03-14T15:57:36.001Z,99492.08
2018-03-14T16:00:03.397Z,99492.02
2018-03-14T16:02:30.782Z,99498.02
2018-03-14T16:04:59.104Z,99494.70
2018-03-14T16:07:27.480Z,99498.76
2018-03-14T16:09:55.012Z,99495.33
2018-03-14T16:12:22.569Z,99493.53
2018-03-14T16:14:49.893Z,99494.28
2018-03-14T16:17:17.363Z,99497.81
2018-03-14T16:19:44.790Z,99500.57
2018-03-14T16:22:12.194Z,99499.16
2018-03-14T16:24:39.755Z,99499.28
2018-03-14T16:27:07.441Z,99500.75
2018-03-14T16:29:35.084Z,99495.50
2018-03-14T16:32:02.541Z,99494.77
2018-03-14T16:34:29.938Z,99494.97
2018-03-14T16:36:57.426Z,99487.47
2018-03-14T16:39:25.362Z,99483.33
2018-03-14T16:41:52.936Z,99483.22
2018-03-14T16:44:20.900Z,99489.95
2018-03-14T16:46:48.305Z,99489.09
2018-03-14T16:49:15.759Z,99496.20
2018-03-14T16:51:43.348Z,99493.08
2018-03-14T16:54:10.797Z,99496.40
2018-03-14T16:56:38.185Z,99496.48
2018-03-14T16:59:05.647Z,99500.57
2018-03-14T17:01:33.005Z,99500.66
2018-03-14T17:04:01.085Z,99503.21
2018-03-14T17:06:28.580Z,99499.48
2018-03-14T17:08:56.576Z,99502.27
2018-03-14T17:11:24.036Z,99506.61
2018-03-14T17:13:51.443Z,99505.55
2018-03-14T17:16:19.131Z,99506.42
2018-03-14T17:18:46.638Z,99514.02
2018-03-14T17:21:14.223Z,99518.90
2018-03-14T17:23:41.707Z,99520.17
2018-03-14T17:26:09.094Z,99516.64
2018-03-14T17:28:36.477Z,99521.84
2018-03-14T17:31:03.915Z,99512.23
2018-03-14T17:33:31.311Z,99515.33
2018-03-14T17:35:58.738Z,99517.15
2018-03-14T17:38:26.787Z,99516.98
2018-03-14T17:40:54.205Z,99513.87
2018-03-14T17:43:21.614Z,99519.80
2018-03-14T17:45:49.229Z,99516.58
2018-03-14T17:48:18.509Z,99514.44
2018-03-14T17:50:45.892Z,99511.80
2018-03-14T17:53:13.326Z,99512.67
2018-03-14T17:55:40.704Z,99512.96
2018-03-14T17:58:08.125Z,99508.09
2018-03-14T18:00:35.584Z,99510.18
2018-03-14T18:03:02.989Z,99510.88
2018-03-14T18:05:30.386Z,99505.63
2018-03-14T18:07:57.769Z,99505.16
2018-03-14T18:10:25.304Z,99504.56
2018-03-14T18:12:52.685Z,99505.53
2018-03-14T18:15:20.364Z,99497.91
2018-03-14T18:17:49.795Z,99497.98
2018-03-14T18:20:17.187Z,99492.28
2018-03-14T18:22:44.646Z,99489.56
2018-03-14T18:25:12.024Z,99481.41
2018-03-14T18:27:39.498Z,99481.38
2018-03-14T18:30:07.012Z,99482.94
2018-03-14T18:32:34.623Z,99476.34
2018-03-14T18:35:03.194Z,99481.51
2018-03-14T18:37:30.601Z,99473.23
2018-03-14T18:40:01.573Z,99473.34
2018-03-14T18:42:28.981Z,99474.52
2018-03-14T18:44:57.102Z,99467.75
2018-03-14T18:47:24.539Z,99459.33
2018-03-14T18:49:51.999Z,99461.99
2018-03-14T18:52:19.897Z,99459.69
2018-03-14T18:54:47.315Z,99451.83
2018-03-14T18:57:14.717Z,99446.27
2018-03-14T18:59:42.134Z,99448.59
2018-03-14T19:02:09.572Z,99443.44
2018-03-14T19:04:36.947Z,99431.31
2018-03-14T19:07:04.393Z,99435.09
2018-03-14T19:09:31.778Z,99430.89
2018-03-14T19:11:59.256Z,99435.37
2018-03-14T19:14:27.176Z,99433.77
2018-03-14T19:16:54.556Z,99431.33
2018-03-14T19:19:22.101Z,99428.02
2018-03-14T19:21:49.511Z,99426.16
2018-03-14T19:24:17.099Z,99421.12
2018-03-14T19:26:44.553Z,99418.20
2018-03-14T19:29:12.013Z,99415.60
2018-03-14T19:31:47.586Z,99418.98
2018-03-14T19:34:23.219Z,99409.95
2018-03-14T19:36:50.912Z,99409.14
2018-03-14T19:39:18.328Z,99409.94
2018-03-14T19:41:45.757Z,99402.02
2018-03-14T19:44:13.352Z,99400.80
2018-03-14T19:46:41.530Z,99404.98
2018-03-14T19:49:09.047Z,99402.06
2018-03-14T19:51:36.439Z,99398.10
2018-03-14T19:54:03.820Z,99388.53
2018-03-14T19:56:31.385Z,99392.88
2018-03-14T19:58:58.827Z,99392.59
2018-03-14T20:01:26.345Z,99401.20
2018-03-14T20:03:53.768Z,99390.03
2018-03-14T20:06:21.173Z,99382.34
2018-03-14T20:08:48.662Z,99379.89
2018-03-14T20:11:15.999Z,99376.10
2018-03-14T20:13:43.422Z,99372.12
2018-03-14T20:16:11.013Z,99369.86
2018-03-14T20:18:38.450Z,99380.06
2018-03-14T20:21:06.000Z,99371.33
2018-03-14T20:23:33.481Z,99370.77
2018-03-14T20:26:00.940Z,99365.81
2018-03-14T20:28:28.450Z,99360.50
2018-03-14T20:30:56.930Z,99362.42
2018-03-14T20:33:24.665Z,99354.80
2018-03-14T20:35:52.092Z,99358.38
2018-03-14T20:38:19.568Z,99353.75
2018-03-14T20:40:47.051Z,99344.43
2018-03-14T20:43:14.539Z,99346.24
2018-03-14T20:45:41.927Z,99344.78
2018-03-14T20:48:09.431Z,99340.29
2018-03-14T20:50:36.854Z,99331.88
2018-03-14T20:53:04.258Z,99333.05
2018-03-14T20:55:31.930Z,99328.42
2018-03-14T20:57:59.522Z,99324.73
2018-03-14T21:00:27.584Z,99316.20
2018-03-14T21:02:54.965Z,99311.69
2018-03-14T21:05:23.258Z,99306.91
2018-03-14T21:07:50.839Z,99308.74
2018-03-14T21:10:18.244Z,99314.13
2018-03-14T21:12:45.668Z,99311.69
2018-03-14T21:15:18.710Z,99309.05
2018-03-14T21:17:46.250Z,99298.84
2018-03-14T21:20:13.718Z,99298.53
2018-03-14T21:22:41.110Z,99296.36
2018-03-14T21:25:08.610Z,99287.44
2018-03-14T21:27:36.093Z,99295.58
2018-03-14T21:30:03.481Z,99288.30
2018-03-14T21:32:30.894Z,99286.38
2018-03-14T21:35:01.639Z,99278.62
2018-03-14T21:37:29.042Z,99274.52
2018-03-14T21:39:56.509Z,99267.41
2018-03-14T21:42:23.931Z,99260.67
2018-03-14T21:44:51.344Z,99257.47
2018-03-14T21:47:18.900Z,99260.16
2018-03-14T21:49:46.628Z,99261.75
2018-03-14T21:52:14.037Z,99263.94
2018-03-14T21:54:49.504Z,99259.55
2018-03-14T21:57:19.731Z,99261.44
2018-03-14T21:59:54.108Z,99256.16
2018-03-14T22:02:21.831Z,99254.48
2018-03-14T22:04:49.264Z,99255.88
2018-03-14T22:07:16.640Z,99258.95
2018-03-14T22:09:44.073Z,99247.94
2018-03-14T22:12:12.533Z,99246.31
2018-03-14T22:14:39.911Z,99240.74
2018-03-14T22:17:07.337Z,99236.00
2018-03-14T22:19:34.744Z,99230.55
2018-03-14T22:22:02.256Z,99229.73
2018-03-14T22:24:29.787Z,99232.04
2018-03-14T22:26:59.106Z,99235.22
2018-03-14T22:29:26.576Z,99231.47
2018-03-14T22:31:54.063Z,99229.98
2018-03-14T22:34:21.906Z,99230.31
2018-03-14T22:36:49.313Z,99229.75
2018-03-14T22:39:20.482Z,99230.31
2018-03-14T22:41:48.022Z,99226.84
2018-03-14T22:44:15.402Z,99226.78
2018-03-14T22:46:42.812Z,99221.50
2018-03-14T22:49:11.030Z,99211.76
2018-03-14T22:51:39.503Z,99201.91
2018-03-14T22:54:06.924Z,99199.59
2018-03-14T22:56:34.345Z,99192.32
2018-03-14T22:59:01.818Z,99188.97
2018-03-14T23:01:29.201Z,99189.64
2018-03-14T23:03:57.617Z,99184.53
2018-03-14T23:06:25.017Z,99178.37
2018-03-14T23:08:52.516Z,99173.95
2018-03-14T23:11:19.891Z,99170.37
2018-03-14T23:13:47.351Z,99174.98
2018-03-14T23:16:14.787Z,99165.49
2018-03-14T23:18:42.368Z,99169.84
2018-03-14T23:21:10.555Z,99172.41
2018-03-14T23:23:37.971Z,99163.83
2018-03-14T23:26:05.469Z,99160.17
2018-03-14T23:28:32.884Z,99158.89
2018-03-14T23:31:00.882Z,99160.25
2018-03-14T23:33:28.336Z,99160.95
2018-03-14T23:35:55.857Z,99157.40
2018-03-14T23:38:23.600Z,99146.31
2018-03-14T23:40:51.301Z,99146.65
2018-03-14T23:43:20.822Z,99144.19
2018-03-14T23:45:48.248Z,99139.27
2018-03-14T23:48:15.832Z,99127.07
2018-03-14T23:50:43.416Z,99128.08
2018-03-14T23:53:10.955Z,99119.88
2018-03-14T23:55:38.372Z,99112.95
2018-03-14T23:58:05.788Z,99113.98
